sensor_id;sensor_type;location;lat;lon;timestamp;pressure;altitude;pressure_sealevel;temperature;humidity
29909;BME280;36247;51.952;6.146;2023-08-24T00:01:17;101744.97;;;17.70;100.00
29909;BME280;36247;51.952;6.146;2023-08-24T00:03:46;101736.88;;;17.82;100.00
29909;BME280;36247;51.952;6.146;2023-08-24T00:06:13;101746.75;;;17.72;100.00
29909;BME280;36247;51.952;6.146;2023-08-24T00:08:42;101748.53;;;17.64;100.00
29909;BME280;36247;51.952;6.146;2023-08-24T00:11:11;101750.28;;;17.88;100.00
29909;BME280;36247;51.952;6.146;2023-08-24T00:13:42;101747.63;;;17.76;100.00
29909;BME280;36247;51.952;6.146;2023-08-24T00:16:19;101743.16;;;17.86;100.00
29909;BME280;36247;51.952;6.146;2023-08-24T00:18:46;101739.59;;;17.94;100.00
29909;BME280;36247;51.952;6.146;2023-08-24T00:21:16;101739.59;;;17.74;100.00
29909;BME280;36247;51.952;6.146;2023-08-24T00:23:43;101732.47;;;17.49;100.00
29909;BME280;36247;51.952;6.146;2023-08-24T00:26:10;101720.88;;;17.47;100.00
29909;BME280;36247;51.952;6.146;2023-08-24T00:28:37;101730.69;;;17.48;100.00
29909;BME280;36247;51.952;6.146;2023-08-24T00:31:03;101733.34;;;17.57;100.00
29909;BME280;36247;51.952;6.146;2023-08-24T00:33:32;101727.09;;;17.66;100.00
29909;BME280;36247;51.952;6.146;2023-08-24T00:36:01;101730.69;;;17.49;100.00
29909;BME280;36247;51.952;6.146;2023-08-24T00:38:27;101733.34;;;17.54;100.00
29909;BME280;36247;51.952;6.146;2023-08-24T00:40:53;101727.13;;;17.50;100.00
29909;BME280;36247;51.952;6.146;2023-08-24T00:43:20;101719.06;;;17.55;100.00
29909;BME280;36247;51.952;6.146;2023-08-24T00:45:50;101730.66;;;17.57;100.00
29909;BME280;36247;51.952;6.146;2023-08-24T00:48:18;101717.28;;;17.54;100.00
29909;BME280;36247;51.952;6.146;2023-08-24T00:50:45;101712.84;;;17.47;100.00
29909;BME280;36247;51.952;6.146;2023-08-24T00:53:11;101712.81;;;17.39;100.00
29909;BME280;36247;51.952;6.146;2023-08-24T00:55:37;101718.19;;;17.31;100.00
29909;BME280;36247;51.952;6.146;2023-08-24T00:58:07;101724.47;;;17.35;100.00
29909;BME280;36247;51.952;6.146;2023-08-24T01:00:34;101732.50;;;17.33;100.00
29909;BME280;36247;51.952;6.146;2023-08-24T01:03:00;101741.41;;;17.51;100.00
29909;BME280;36247;51.952;6.146;2023-08-24T01:05:25;101741.38;;;17.61;100.00
29909;BME280;36247;51.952;6.146;2023-08-24T01:07:51;101732.44;;;17.79;100.00
29909;BME280;36247;51.952;6.146;2023-08-24T01:10:17;101730.69;;;17.49;100.00
29909;BME280;36247;51.952;6.146;2023-08-24T01:16:08;101721.78;;;17.41;100.00
29909;BME280;36247;51.952;6.146;2023-08-24T01:18:38;101721.75;;;17.61;100.00
29909;BME280;36247;51.952;6.146;2023-08-24T01:21:05;101708.34;;;17.66;100.00
29909;BME280;36247;51.952;6.146;2023-08-24T01:23:44;101711.00;;;17.73;100.00
29909;BME280;36247;51.952;6.146;2023-08-24T01:26:18;101698.56;;;17.37;100.00
29909;BME280;36247;51.952;6.146;2023-08-24T01:28:46;101702.09;;;17.67;100.00
29909;BME280;36247;51.952;6.146;2023-08-24T01:31:17;101696.72;;;17.67;100.00
29909;BME280;36247;51.952;6.146;2023-08-24T01:33:46;101700.25;;;17.75;100.00
29909;BME280;36247;51.952;6.146;2023-08-24T01:36:13;101705.66;;;17.61;100.00
29909;BME280;36247;51.952;6.146;2023-08-24T01:38:46;101701.19;;;17.55;100.00
29909;BME280;36247;51.952;6.146;2023-08-24T01:41:24;101707.47;;;17.57;100.00
29909;BME280;36247;51.952;6.146;2023-08-24T01:43:54;101702.97;;;17.62;100.00
29909;BME280;36247;51.952;6.146;2023-08-24T01:46:24;101694.09;;;17.53;100.00
29909;BME280;36247;51.952;6.146;2023-08-24T01:48:51;101694.09;;;17.33;100.00
29909;BME280;36247;51.952;6.146;2023-08-24T01:51:18;101697.66;;;17.39;100.00
29909;BME280;36247;51.952;6.146;2023-08-24T01:53:46;101695.84;;;17.52;100.00
29909;BME280;36247;51.952;6.146;2023-08-24T01:56:13;101683.38;;;17.50;100.00
29909;BME280;36247;51.952;6.146;2023-08-24T01:58:42;101682.47;;;17.38;100.00
29909;BME280;36247;51.952;6.146;2023-08-24T02:01:08;101687.84;;;17.29;100.00
29909;BME280;36247;51.952;6.146;2023-08-24T02:03:34;101686.94;;;17.39;100.00
29909;BME280;36247;51.952;6.146;2023-08-24T02:06:00;101686.97;;;17.35;100.00
29909;BME280;36247;51.952;6.146;2023-08-24T02:08:26;101691.41;;;17.31;100.00
29909;BME280;36247;51.952;6.146;2023-08-24T02:10:52;101701.22;;;17.37;100.00
29909;BME280;36247;51.952;6.146;2023-08-24T02:13:17;101695.00;;;17.39;100.00
29909;BME280;36247;51.952;6.146;2023-08-24T02:15:43;101694.97;;;17.47;100.00
29909;BME280;36247;51.952;6.146;2023-08-24T02:18:11;101696.75;;;17.56;100.00
29909;BME280;36247;51.952;6.146;2023-08-24T02:20:37;101692.25;;;17.64;100.00
29909;BME280;36247;51.952;6.146;2023-08-24T02:23:04;101703.88;;;17.51;100.00
29909;BME280;36247;51.952;6.146;2023-08-24T02:25:31;101709.28;;;17.21;100.00
29909;BME280;36247;51.952;6.146;2023-08-24T02:27:57;101712.81;;;17.40;100.00
29909;BME280;36247;51.952;6.146;2023-08-24T02:30:23;101719.06;;;17.55;100.00
29909;BME280;36247;51.952;6.146;2023-08-24T02:32:49;101715.47;;;17.70;100.00
29909;BME280;36247;51.952;6.146;2023-08-24T02:35:17;101715.47;;;17.76;100.00
29909;BME280;36247;51.952;6.146;2023-08-24T02:37:43;101712.81;;;17.70;100.00
29909;BME280;36247;51.952;6.146;2023-08-24T02:40:11;101706.50;;;17.85;100.00
29909;BME280;36247;51.952;6.146;2023-08-24T02:42:36;101693.16;;;17.69;100.00
29909;BME280;36247;51.952;6.146;2023-08-24T02:45:04;101691.38;;;17.70;100.00
29909;BME280;36247;51.952;6.146;2023-08-24T02:47:30;101697.63;;;17.78;100.00
29909;BME280;36247;51.952;6.146;2023-08-24T02:49:55;101687.78;;;17.71;100.00
29909;BME280;36247;51.952;6.146;2023-08-24T02:52:21;101694.91;;;17.83;100.00
29909;BME280;36247;51.952;6.146;2023-08-24T02:54:48;101685.97;;;17.80;100.00
29909;BME280;36247;51.952;6.146;2023-08-24T02:57:17;101682.41;;;17.83;100.00
29909;BME280;36247;51.952;6.146;2023-08-24T02:59:42;101678.81;;;17.76;100.00
29909;BME280;36247;51.952;6.146;2023-08-24T03:02:11;101677.09;;;17.69;100.00
29909;BME280;36247;51.952;6.146;2023-08-24T03:04:37;101681.53;;;17.66;100.00
29909;BME280;36247;51.952;6.146;2023-08-24T03:07:02;101684.16;;;17.89;100.00
29909;BME280;36247;51.952;6.146;2023-08-24T03:09:30;101680.59;;;17.91;100.00
29909;BME280;36247;51.952;6.146;2023-08-24T03:11:55;101666.31;;;17.83;100.00
29909;BME280;36247;51.952;6.146;2023-08-24T03:14:21;101650.28;;;17.74;100.00
29909;BME280;36247;51.952;6.146;2023-08-24T03:16:46;101644.00;;;17.81;100.00
29909;BME280;36247;51.952;6.146;2023-08-24T03:19:12;101641.31;;;17.79;100.00
29909;BME280;36247;51.952;6.146;2023-08-24T03:21:42;101632.44;;;17.65;100.00
29909;BME280;36247;51.952;6.146;2023-08-24T03:24:10;101623.50;;;17.66;100.00
29909;BME280;36247;51.952;6.146;2023-08-24T03:26:38;101613.66;;;17.65;100.00
29909;BME280;36247;51.952;6.146;2023-08-24T03:29:04;101605.56;;;17.77;100.00
29909;BME280;36247;51.952;6.146;2023-08-24T03:31:30;101598.44;;;17.79;100.00
29909;BME280;36247;51.952;6.146;2023-08-24T03:33:56;101603.78;;;17.86;100.00
29909;BME280;36247;51.952;6.146;2023-08-24T03:36:21;101590.44;;;17.64;100.00
29909;BME280;36247;51.952;6.146;2023-08-24T03:38:47;101578.81;;;17.70;100.00
29909;BME280;36247;51.952;6.146;2023-08-24T03:41:12;101584.16;;;17.71;100.00
29909;BME280;36247;51.952;6.146;2023-08-24T03:43:38;101585.94;;;17.78;100.00
29909;BME280;36247;51.952;6.146;2023-08-24T03:46:04;101590.38;;;17.87;100.00
29909;BME280;36247;51.952;6.146;2023-08-24T03:48:31;101594.81;;;17.90;100.00
29909;BME280;36247;51.952;6.146;2023-08-24T03:50:57;101602.00;;;17.82;100.00
29909;BME280;36247;51.952;6.146;2023-08-24T03:53:24;101594.81;;;17.85;100.00
29909;BME280;36247;51.952;6.146;2023-08-24T03:55:51;101606.44;;;17.86;100.00
29909;BME280;36247;51.952;6.146;2023-08-24T03:58:19;101601.97;;;17.95;100.00
29909;BME280;36247;51.952;6.146;2023-08-24T04:00:46;101592.16;;;17.82;100.00
29909;BME280;36247;51.952;6.146;2023-08-24T04:03:12;101583.31;;;17.63;100.00
29909;BME280;36247;51.952;6.146;2023-08-24T04:05:38;101583.31;;;17.66;100.00
29909;BME280;36247;51.952;6.146;2023-08-24T04:08:05;101585.09;;;17.61;100.00
29909;BME280;36247;51.952;6.146;2023-08-24T04:10:31;101586.88;;;17.63;100.00
29909;BME280;36247;51.952;6.146;2023-08-24T04:12:57;101578.84;;;17.59;100.00
29909;BME280;36247;51.952;6.146;2023-08-24T04:15:23;101575.22;;;17.75;100.00
29909;BME280;36247;51.952;6.146;2023-08-24T04:17:49;101568.13;;;17.65;100.00
29909;BME280;36247;51.952;6.146;2023-08-24T04:20:17;101571.66;;;17.67;100.00
29909;BME280;36247;51.952;6.146;2023-08-24T04:22:42;101572.59;;;17.65;100.00
29909;BME280;36247;51.952;6.146;2023-08-24T04:25:08;101558.31;;;17.59;100.00
29909;BME280;36247;51.952;6.146;2023-08-24T04:27:34;101553.03;;;17.41;100.00
29909;BME280;36247;51.952;6.146;2023-08-24T04:30:00;101554.88;;;17.17;100.00
29909;BME280;36247;51.952;6.146;2023-08-24T04:32:27;101554.84;;;17.22;100.00
29909;BME280;36247;51.952;6.146;2023-08-24T04:34:52;101548.63;;;17.17;100.00
29909;BME280;36247;51.952;6.146;2023-08-24T04:37:18;101548.63;;;17.17;100.00
29909;BME280;36247;51.952;6.146;2023-08-24T04:39:45;101548.63;;;17.20;100.00
29909;BME280;36247;51.952;6.146;2023-08-24T04:42:11;101549.47;;;17.30;100.00
29909;BME280;36247;51.952;6.146;2023-08-24T04:44:37;101542.34;;;17.32;100.00
29909;BME280;36247;51.952;6.146;2023-08-24T04:47:02;101550.38;;;17.36;100.00
29909;BME280;36247;51.952;6.146;2023-08-24T04:49:30;101545.00;;;17.28;100.00
29909;BME280;36247;51.952;6.146;2023-08-24T04:51:55;101548.56;;;17.34;100.00
29909;BME280;36247;51.952;6.146;2023-08-24T04:54:21;101549.47;;;17.31;100.00
29909;BME280;36247;51.952;6.146;2023-08-24T04:56:47;101550.34;;;17.30;100.00
29909;BME280;36247;51.952;6.146;2023-08-24T04:59:12;101549.50;;;17.16;100.00
29909;BME280;36247;51.952;6.146;2023-08-24T05:01:38;101553.97;;;17.20;100.00
29909;BME280;36247;51.952;6.146;2023-08-24T05:04:04;101547.72;;;17.10;100.00
29909;BME280;36247;51.952;6.146;2023-08-24T05:06:30;101553.97;;;17.23;100.00
29909;BME280;36247;51.952;6.146;2023-08-24T05:08:55;101541.44;;;17.33;100.00
29909;BME280;36247;51.952;6.146;2023-08-24T05:11:23;101541.44;;;17.33;100.00
29909;BME280;36247;51.952;6.146;2023-08-24T05:13:52;101541.44;;;17.31;100.00
29909;BME280;36247;51.952;6.146;2023-08-24T05:16:17;101547.69;;;17.38;100.00
29909;BME280;36247;51.952;6.146;2023-08-24T05:18:43;101549.44;;;17.40;100.00
29909;BME280;36247;51.952;6.146;2023-08-24T05:21:08;101544.06;;;17.51;100.00
29909;BME280;36247;51.952;6.146;2023-08-24T05:23:35;101544.06;;;17.54;100.00
29909;BME280;36247;51.952;6.146;2023-08-24T05:26:01;101541.38;;;17.56;100.00
29909;BME280;36247;51.952;6.146;2023-08-24T05:28:28;101550.22;;;17.69;100.00
29909;BME280;36247;51.952;6.146;2023-08-24T05:30:55;101539.53;;;17.62;100.00
29909;BME280;36247;51.952;6.146;2023-08-24T05:33:22;101553.91;;;17.38;100.00
29909;BME280;36247;51.952;6.146;2023-08-24T05:35:49;101556.53;;;17.54;100.00
29909;BME280;36247;51.952;6.146;2023-08-24T05:38:17;101559.19;;;17.60;100.00
29909;BME280;36247;51.952;6.146;2023-08-24T05:40:47;101555.63;;;17.62;100.00
29909;BME280;36247;51.952;6.146;2023-08-24T05:43:12;101562.72;;;17.71;100.00
29909;BME280;36247;51.952;6.146;2023-08-24T05:45:38;101556.50;;;17.68;100.00
29909;BME280;36247;51.952;6.146;2023-08-24T05:48:06;101553.81;;;17.69;100.00
29909;BME280;36247;51.952;6.146;2023-08-24T05:50:33;101554.59;;;17.87;100.00
29909;BME280;36247;51.952;6.146;2023-08-24T05:53:00;101554.59;;;17.88;100.00
29909;BME280;36247;51.952;6.146;2023-08-24T05:55:25;101549.25;;;17.85;100.00
29909;BME280;36247;51.952;6.146;2023-08-24T05:57:51;101549.28;;;17.82;100.00
29909;BME280;36247;51.952;6.146;2023-08-24T06:00:17;101555.50;;;17.87;100.00
29909;BME280;36247;51.952;6.146;2023-08-24T06:02:43;101539.44;;;17.93;100.00
29909;BME280;36247;51.952;6.146;2023-08-24T06:05:08;101535.84;;;17.96;100.00
29909;BME280;36247;51.952;6.146;2023-08-24T06:07:34;101531.22;;;18.23;100.00
29909;BME280;36247;51.952;6.146;2023-08-24T06:10:00;101542.78;;;18.29;100.00
29909;BME280;36247;51.952;6.146;2023-08-24T06:12:26;101535.41;;;18.58;100.00
29909;BME280;36247;51.952;6.146;2023-08-24T06:14:51;101531.97;;;18.39;100.00
29909;BME280;36247;51.952;6.146;2023-08-24T06:17:17;101526.66;;;18.34;100.00
29909;BME280;36247;51.952;6.146;2023-08-24T06:19:43;101517.72;;;18.35;100.00
29909;BME280;36247;51.952;6.146;2023-08-24T06:22:08;101512.44;;;18.24;100.00
29909;BME280;36247;51.952;6.146;2023-08-24T06:24:35;101500.66;;;18.45;100.00
29909;BME280;36247;51.952;6.146;2023-08-24T06:27:00;101493.50;;;18.44;100.00
29909;BME280;36247;51.952;6.146;2023-08-24T06:29:28;101486.28;;;18.48;100.00
29909;BME280;36247;51.952;6.146;2023-08-24T06:31:55;101482.56;;;18.64;100.00
29909;BME280;36247;51.952;6.146;2023-08-24T06:34:22;101469.94;;;18.76;100.00
29909;BME280;36247;51.952;6.146;2023-08-24T06:36:50;101465.41;;;18.85;100.00
29909;BME280;36247;51.952;6.146;2023-08-24T06:39:17;101457.22;;;18.98;100.00
29909;BME280;36247;51.952;6.146;2023-08-24T06:41:42;101455.25;;;19.15;100.00
29909;BME280;36247;51.952;6.146;2023-08-24T06:44:08;101448.75;;;19.33;100.00
29909;BME280;36247;51.952;6.146;2023-08-24T06:46:34;101441.47;;;19.40;100.00
29909;BME280;36247;51.952;6.146;2023-08-24T06:49:00;101450.38;;;19.47;100.00
29909;BME280;36247;51.952;6.146;2023-08-24T06:51:26;101455.47;;;19.65;100.00
29909;BME280;36247;51.952;6.146;2023-08-24T06:53:53;101463.38;;;19.76;100.00
29909;BME280;36247;51.952;6.146;2023-08-24T06:56:19;101473.06;;;19.89;100.00
29909;BME280;36247;51.952;6.146;2023-08-24T06:58:47;101467.47;;;20.05;100.00
29909;BME280;36247;51.952;6.146;2023-08-24T07:01:13;101466.28;;;20.24;100.00
29909;BME280;36247;51.952;6.146;2023-08-24T07:03:39;101461.59;;;20.36;100.00
29909;BME280;36247;51.952;6.146;2023-08-24T07:06:06;101463.31;;;20.40;100.00
29909;BME280;36247;51.952;6.146;2023-08-24T07:08:33;101451.53;;;20.47;100.00
29909;BME280;36247;51.952;6.146;2023-08-24T07:11:01;101449.53;;;20.57;100.00
29909;BME280;36247;51.952;6.146;2023-08-24T07:13:27;101455.78;;;20.60;100.00
29909;BME280;36247;51.952;6.146;2023-08-24T07:15:53;101455.78;;;20.60;100.00
29909;BME280;36247;51.952;6.146;2023-08-24T07:18:20;101453.56;;;20.86;100.00
29909;BME280;36247;51.952;6.146;2023-08-24T07:20:46;101445.94;;;21.08;100.00
29909;BME280;36247;51.952;6.146;2023-08-24T07:23:11;101439.25;;;21.27;100.00
29909;BME280;36247;51.952;6.146;2023-08-24T07:25:37;101425.84;;;21.24;100.00
29909;BME280;36247;51.952;6.146;2023-08-24T07:28:03;101427.31;;;21.39;100.00
29909;BME280;36247;51.952;6.146;2023-08-24T07:30:31;101424.84;;;21.71;100.00
29909;BME280;36247;51.952;6.146;2023-08-24T07:32:56;101426.41;;;21.79;100.00
29909;BME280;36247;51.952;6.146;2023-08-24T07:35:22;101416.75;;;22.08;100.00
29909;BME280;36247;51.952;6.146;2023-08-24T07:37:52;101419.66;;;22.00;100.00
29909;BME280;36247;51.952;6.146;2023-08-24T07:40:18;101424.72;;;22.13;100.00
29909;BME280;36247;51.952;6.146;2023-08-24T07:42:47;101425.66;;;22.12;100.00
29909;BME280;36247;51.952;6.146;2023-08-24T07:45:14;101430.94;;;22.16;100.00
29909;BME280;36247;51.952;6.146;2023-08-24T07:47:43;101440.50;;;22.30;100.00
29909;BME280;36247;51.952;6.146;2023-08-24T07:50:09;101433.91;;;22.42;100.00
29909;BME280;36247;51.952;6.146;2023-08-24T07:52:37;101429.72;;;22.64;100.00
29909;BME280;36247;51.952;6.146;2023-08-24T07:55:03;101427.31;;;22.86;100.00
29909;BME280;36247;51.952;6.146;2023-08-24T07:57:30;101421.50;;;23.00;100.00
29909;BME280;36247;51.952;6.146;2023-08-24T07:59:57;101426.16;;;23.28;100.00
29909;BME280;36247;51.952;6.146;2023-08-24T08:02:23;101416.53;;;23.18;100.00
29909;BME280;36247;51.952;6.146;2023-08-24T08:04:49;101420.00;;;23.53;100.00
29909;BME280;36247;51.952;6.146;2023-08-24T08:07:17;101419.56;;;23.67;100.00
29909;BME280;36247;51.952;6.146;2023-08-24T08:09:42;101405.63;;;23.51;100.00
29909;BME280;36247;51.952;6.146;2023-08-24T08:12:08;101407.84;;;23.96;100.00
29909;BME280;36247;51.952;6.146;2023-08-24T08:14:34;101420.44;;;24.24;100.00
29909;BME280;36247;51.952;6.146;2023-08-24T08:16:59;101421.41;;;24.48;100.00
29909;BME280;36247;51.952;6.146;2023-08-24T08:19:25;101423.28;;;24.46;100.00
29909;BME280;36247;51.952;6.146;2023-08-24T08:21:53;101415.59;;;24.86;100.00
29909;BME280;36247;51.952;6.146;2023-08-24T08:24:18;101419.34;;;24.81;100.00
29909;BME280;36247;51.952;6.146;2023-08-24T08:26:46;101417.06;;;24.94;100.00
29909;BME280;36247;51.952;6.146;2023-08-24T08:29:11;101410.84;;;25.16;100.00
29909;BME280;36247;51.952;6.146;2023-08-24T08:31:37;101413.97;;;25.05;100.00
29909;BME280;36247;51.952;6.146;2023-08-24T08:34:02;101409.84;;;25.19;100.00
29909;BME280;36247;51.952;6.146;2023-08-24T08:36:30;101415.38;;;25.39;100.00
29909;BME280;36247;51.952;6.146;2023-08-24T08:39:00;101412.13;;;25.31;100.00
29909;BME280;36247;51.952;6.146;2023-08-24T08:41:28;101404.59;;;25.38;100.00
29909;BME280;36247;51.952;6.146;2023-08-24T08:43:56;101416.31;;;25.14;100.00
29909;BME280;36247;51.952;6.146;2023-08-24T08:46:22;101423.63;;;24.89;100.00
29909;BME280;36247;51.952;6.146;2023-08-24T08:48:48;101407.81;;;25.24;100.00
29909;BME280;36247;51.952;6.146;2023-08-24T08:51:17;101400.34;;;25.54;100.00
29909;BME280;36247;51.952;6.146;2023-08-24T08:53:43;101393.66;;;25.63;100.00
29909;BME280;36247;51.952;6.146;2023-08-24T08:56:09;101386.66;;;25.57;100.00
29909;BME280;36247;51.952;6.146;2023-08-24T08:58:34;101375.13;;;25.74;100.00
29909;BME280;36247;51.952;6.146;2023-08-24T09:01:02;101365.59;;;25.64;100.00
29909;BME280;36247;51.952;6.146;2023-08-24T09:03:31;101362.88;;;25.64;100.00
29909;BME280;36247;51.952;6.146;2023-08-24T09:05:57;101353.09;;;26.04;100.00
29909;BME280;36247;51.952;6.146;2023-08-24T09:08:25;101348.66;;;25.79;100.00
29909;BME280;36247;51.952;6.146;2023-08-24T09:10:51;101337.56;;;26.28;100.00
29909;BME280;36247;51.952;6.146;2023-08-24T09:13:17;101337.16;;;26.79;100.00
29909;BME280;36247;51.952;6.146;2023-08-24T09:15:43;101328.09;;;26.78;100.00
29909;BME280;36247;51.952;6.146;2023-08-24T09:18:08;101322.63;;;26.59;100.00
29909;BME280;36247;51.952;6.146;2023-08-24T09:20:34;101320.63;;;26.83;100.00
29909;BME280;36247;51.952;6.146;2023-08-24T09:23:00;101312.97;;;26.91;100.00
29909;BME280;36247;51.952;6.146;2023-08-24T09:25:26;101302.69;;;26.98;100.00
29909;BME280;36247;51.952;6.146;2023-08-24T09:28:02;101298.19;;;26.78;100.00
29909;BME280;36247;51.952;6.146;2023-08-24T09:30:35;101296.06;;;27.23;100.00
29909;BME280;36247;51.952;6.146;2023-08-24T09:33:02;101300.47;;;27.06;100.00
29909;BME280;36247;51.952;6.146;2023-08-24T09:35:28;101289.84;;;27.40;100.00
29909;BME280;36247;51.952;6.146;2023-08-24T09:37:53;101279.31;;;27.13;100.00
29909;BME280;36247;51.952;6.146;2023-08-24T09:40:24;101271.22;;;27.31;100.00
29909;BME280;36247;51.952;6.146;2023-08-24T09:42:50;101263.69;;;27.55;100.00
29909;BME280;36247;51.952;6.146;2023-08-24T09:45:17;101254.78;;;26.96;100.00
29909;BME280;36247;51.952;6.146;2023-08-24T09:47:51;101256.16;;;27.42;100.00
29909;BME280;36247;51.952;6.146;2023-08-24T09:50:18;101254.59;;;27.91;100.00
29909;BME280;36247;51.952;6.146;2023-08-24T09:52:46;101250.03;;;28.26;100.00
29909;BME280;36247;51.952;6.146;2023-08-24T09:55:18;101257.72;;;27.83;100.00
29909;BME280;36247;51.952;6.146;2023-08-24T09:57:46;101260.72;;;28.47;100.00
29909;BME280;36247;51.952;6.146;2023-08-24T10:00:13;101264.69;;;28.06;100.00
29909;BME280;36247;51.952;6.146;2023-08-24T10:02:50;101262.34;;;27.81;100.00
29909;BME280;36247;51.952;6.146;2023-08-24T10:05:20;101276.66;;;28.04;100.00
29909;BME280;36247;51.952;6.146;2023-08-24T10:07:56;101285.91;;;27.82;100.00
29909;BME280;36247;51.952;6.146;2023-08-24T10:10:24;101291.59;;;28.12;100.00
29909;BME280;36247;51.952;6.146;2023-08-24T10:12:51;101284.88;;;27.85;100.00
29909;BME280;36247;51.952;6.146;2023-08-24T10:15:21;101276.22;;;27.94;100.00
29909;BME280;36247;51.952;6.146;2023-08-24T10:17:49;101283.50;;;27.39;100.00
29909;BME280;36247;51.952;6.146;2023-08-24T10:20:19;101278.09;;;27.57;100.00
29909;BME280;36247;51.952;6.146;2023-08-24T10:22:47;101294.47;;;27.38;100.00
29909;BME280;36247;51.952;6.146;2023-08-24T10:25:13;101302.94;;;26.94;100.00
29909;BME280;36247;51.952;6.146;2023-08-24T10:27:42;101297.03;;;26.63;100.00
29909;BME280;36247;51.952;6.146;2023-08-24T10:30:12;101294.09;;;26.69;100.00
29909;BME280;36247;51.952;6.146;2023-08-24T10:32:40;101281.75;;;27.00;100.00
29909;BME280;36247;51.952;6.146;2023-08-24T10:35:07;101282.75;;;27.17;100.00
29909;BME280;36247;51.952;6.146;2023-08-24T10:37:33;101277.69;;;27.28;100.00
29909;BME280;36247;51.952;6.146;2023-08-24T10:40:01;101266.34;;;27.01;100.00
29909;BME280;36247;51.952;6.146;2023-08-24T10:42:43;101252.59;;;26.85;100.00
29909;BME280;36247;51.952;6.146;2023-08-24T10:45:13;101247.91;;;26.69;100.00
29909;BME280;36247;51.952;6.146;2023-08-24T10:47:46;101238.00;;;26.48;100.00
29909;BME280;36247;51.952;6.146;2023-08-24T10:50:13;101235.50;;;26.62;100.00
29909;BME280;36247;51.952;6.146;2023-08-24T10:52:43;101211.19;;;26.40;100.00
29909;BME280;36247;51.952;6.146;2023-08-24T10:55:23;101214.88;;;26.18;100.00
29909;BME280;36247;51.952;6.146;2023-08-24T10:58:00;101220.31;;;26.18;100.00
29909;BME280;36247;51.952;6.146;2023-08-24T11:00:27;101221.88;;;26.03;100.00
29909;BME280;36247;51.952;6.146;2023-08-24T11:02:53;101219.84;;;26.09;100.00
29909;BME280;36247;51.952;6.146;2023-08-24T11:05:29;101216.78;;;26.16;100.00
29909;BME280;36247;51.952;6.146;2023-08-24T11:07:56;101219.97;;;26.45;100.00
29909;BME280;36247;51.952;6.146;2023-08-24T11:10:25;101220.84;;;26.27;100.00
29909;BME280;36247;51.952;6.146;2023-08-24T11:13:07;101219.16;;;26.24;100.00
29909;BME280;36247;51.952;6.146;2023-08-24T11:15:38;101209.94;;;26.08;100.00
29909;BME280;36247;51.952;6.146;2023-08-24T11:18:25;101209.75;;;25.92;100.00
29909;BME280;36247;51.952;6.146;2023-08-24T11:20:54;101218.53;;;25.76;100.00
29909;BME280;36247;51.952;6.146;2023-08-24T11:23:22;101228.84;;;25.88;100.00
29909;BME280;36247;51.952;6.146;2023-08-24T11:25:50;101234.41;;;25.85;100.00
29909;BME280;36247;51.952;6.146;2023-08-24T11:28:20;101242.88;;;26.00;100.00
29909;BME280;36247;51.952;6.146;2023-08-24T11:30:46;101242.31;;;25.92;100.00
29909;BME280;36247;51.952;6.146;2023-08-24T11:33:13;101239.31;;;25.98;100.00
29909;BME280;36247;51.952;6.146;2023-08-24T11:35:46;101247.44;;;25.99;100.00
29909;BME280;36247;51.952;6.146;2023-08-24T11:38:12;101227.13;;;26.08;100.00
29909;BME280;36247;51.952;6.146;2023-08-24T11:40:38;101219.91;;;26.28;100.00
29909;BME280;36247;51.952;6.146;2023-08-24T11:43:05;101220.44;;;26.55;100.00
29909;BME280;36247;51.952;6.146;2023-08-24T11:45:35;101227.72;;;26.54;100.00
29909;BME280;36247;51.952;6.146;2023-08-24T11:48:06;101231.56;;;26.88;100.00
29909;BME280;36247;51.952;6.146;2023-08-24T11:50:32;101218.19;;;27.03;100.00
29909;BME280;36247;51.952;6.146;2023-08-24T11:53:00;101204.81;;;26.98;100.00
29909;BME280;36247;51.952;6.146;2023-08-24T11:55:26;101197.19;;;26.87;100.00
29909;BME280;36247;51.952;6.146;2023-08-24T11:57:53;101195.88;;;26.96;100.00
29909;BME280;36247;51.952;6.146;2023-08-24T12:00:20;101194.97;;;26.96;100.00
29909;BME280;36247;51.952;6.146;2023-08-24T12:02:47;101185.44;;;27.23;100.00
29909;BME280;36247;51.952;6.146;2023-08-24T12:05:26;101181.66;;;27.08;100.00
29909;BME280;36247;51.952;6.146;2023-08-24T12:07:53;101163.88;;;27.38;100.00
29909;BME280;36247;51.952;6.146;2023-08-24T12:10:19;101165.50;;;27.23;100.00
29909;BME280;36247;51.952;6.146;2023-08-24T12:12:45;101159.94;;;27.26;100.00
29909;BME280;36247;51.952;6.146;2023-08-24T12:15:18;101155.41;;;27.44;100.00
29909;BME280;36247;51.952;6.146;2023-08-24T12:17:47;101150.56;;;27.14;100.00
29909;BME280;36247;51.952;6.146;2023-08-24T12:20:20;101146.38;;;27.07;100.00
29909;BME280;36247;51.952;6.146;2023-08-24T12:22:53;101150.16;;;26.85;100.00
29909;BME280;36247;51.952;6.146;2023-08-24T12:25:22;101139.84;;;27.11;100.00
29909;BME280;36247;51.952;6.146;2023-08-24T12:27:48;101126.16;;;27.13;100.00
29909;BME280;36247;51.952;6.146;2023-08-24T12:30:18;101120.47;;;27.00;100.00
29909;BME280;36247;51.952;6.146;2023-08-24T12:32:47;101107.25;;;27.09;100.00
29909;BME280;36247;51.952;6.146;2023-08-24T12:35:16;101107.13;;;27.30;100.00
29909;BME280;36247;51.952;6.146;2023-08-24T12:37:45;101103.50;;;27.12;100.00
29909;BME280;36247;51.952;6.146;2023-08-24T12:40:15;101112.72;;;27.27;100.00
29909;BME280;36247;51.952;6.146;2023-08-24T12:42:42;101123.56;;;27.09;100.00
29909;BME280;36247;51.952;6.146;2023-08-24T12:45:08;101120.84;;;27.09;100.00